createdAt,value
2019-03-29T00:01:42.411Z,88.77
2019-03-29T00:04:19.500Z,86.63
2019-03-29T00:06:51.974Z,97.17
2019-03-29T00:09:24.136Z,89.47
2019-03-29T00:12:19.657Z,83.47
2019-03-29T00:14:57.067Z,83.33
2019-03-29T00:21:03.169Z,79.73
2019-03-29T00:23:37.759Z,80.80
2019-03-29T00:26:16.574Z,82.00
2019-03-29T00:28:53.148Z,92.27
2019-03-29T00:31:26.739Z,88.07
2019-03-29T00:33:58.920Z,86.33
2019-03-29T00:36:30.876Z,92.73
2019-03-29T00:39:02.848Z,88.77
2019-03-29T00:41:35.119Z,79.97
2019-03-29T00:44:06.971Z,78.80
2019-03-29T00:46:37.946Z,82.33
2019-03-29T00:49:09.643Z,78.07
2019-03-29T00:51:40.291Z,91.77
2019-03-29T00:54:11.523Z,84.70
2019-03-29T00:56:42.582Z,75.10
2019-03-29T00:59:14.299Z,79.53
2019-03-29T01:01:46.351Z,78.63
2019-03-29T01:04:17.846Z,73.83
2019-03-29T01:06:49.398Z,79.30
2019-03-29T01:09:20.168Z,82.63
2019-03-29T01:11:51.587Z,80.63
2019-03-29T01:14:22.923Z,72.80
2019-03-29T01:16:54.151Z,74.23
2019-03-29T01:19:25.934Z,79.17
2019-03-29T01:21:56.661Z,75.27
2019-03-29T01:24:28.844Z,70.37
2019-03-29T01:26:59.468Z,69.27
2019-03-29T01:29:30.347Z,79.53
2019-03-29T01:32:01.859Z,70.33
2019-03-29T01:34:32.169Z,71.03
2019-03-29T01:37:03.331Z,69.70
2019-03-29T01:39:34.153Z,75.93
2019-03-29T01:42:04.990Z,71.03
2019-03-29T01:44:36.433Z,74.23
2019-03-29T01:47:07.276Z,68.57
2019-03-29T01:49:38.504Z,76.80
2019-03-29T01:52:09.465Z,72.20
2019-03-29T01:54:40.077Z,68.93
2019-03-29T01:57:10.815Z,71.00
2019-03-29T01:59:42.986Z,67.53
2019-03-29T02:02:15.180Z,74.63
2019-03-29T02:04:46.723Z,65.60
2019-03-29T02:07:17.646Z,82.47
2019-03-29T02:09:48.379Z,69.30
2019-03-29T02:12:20.347Z,71.67
2019-03-29T02:14:50.971Z,80.07
2019-03-29T02:17:22.512Z,81.37
2019-03-29T02:19:53.666Z,77.67
2019-03-29T02:22:25.848Z,68.43
2019-03-29T02:24:56.554Z,65.53
2019-03-29T02:27:27.495Z,74.73
2019-03-29T02:29:58.177Z,79.60
2019-03-29T02:32:29.160Z,87.47
2019-03-29T02:35:00.458Z,75.37
2019-03-29T02:37:31.578Z,89.47
2019-03-29T02:40:02.418Z,84.77
2019-03-29T02:42:33.850Z,91.73
2019-03-29T02:45:04.571Z,79.43
2019-03-29T02:47:36.979Z,89.13
2019-03-29T02:50:09.139Z,83.50
2019-03-29T02:52:40.667Z,83.87
2019-03-29T02:55:11.522Z,82.27
2019-03-29T02:57:42.971Z,69.83
2019-03-29T03:00:15.021Z,70.70
2019-03-29T03:02:46.898Z,69.90
2019-03-29T03:05:17.944Z,69.07
2019-03-29T03:07:49.909Z,78.13
2019-03-29T03:10:21.530Z,71.07
2019-03-29T03:12:52.463Z,67.93
2019-03-29T03:15:23.207Z,64.73
2019-03-29T03:17:54.559Z,65.87
2019-03-29T03:20:26.441Z,64.37
2019-03-29T03:22:57.985Z,71.20
2019-03-29T03:25:29.524Z,66.67
2019-03-29T03:28:01.128Z,71.53
2019-03-29T03:30:32.034Z,72.13
2019-03-29T03:33:03.775Z,64.77
2019-03-29T03:35:34.498Z,70.20
2019-03-29T03:38:05.536Z,60.17
2019-03-29T03:40:36.489Z,65.80
2019-03-29T03:43:08.050Z,64.03
2019-03-29T03:45:39.924Z,73.57
2019-03-29T03:48:10.826Z,66.83
2019-03-29T03:50:42.782Z,78.17
2019-03-29T03:53:13.540Z,75.73
2019-03-29T03:55:46.722Z,68.57
2019-03-29T03:58:17.757Z,67.77
2019-03-29T04:00:53.525Z,75.37
2019-03-29T04:03:24.751Z,80.43
2019-03-29T04:05:55.810Z,87.23
2019-03-29T04:08:26.520Z,73.33
2019-03-29T04:10:58.841Z,78.20
2019-03-29T04:13:29.747Z,81.63
2019-03-29T04:16:01.515Z,83.87
2019-03-29T04:18:32.217Z,81.97
2019-03-29T04:21:02.874Z,90.30
2019-03-29T04:23:34.720Z,85.73
2019-03-29T05:06:35.094Z,86.93
2019-03-29T05:12:33.823Z,79.67
2019-03-29T05:25:23.441Z,81.97
2019-03-29T05:35:03.151Z,84.30
2019-03-29T05:37:37.559Z,85.20
2019-03-29T05:40:09.101Z,73.53
2019-03-29T05:42:40.558Z,85.37
2019-03-29T05:45:11.501Z,72.23
2019-03-29T05:47:46.950Z,82.40
2019-03-29T05:50:18.920Z,78.37
2019-03-29T05:52:49.843Z,76.70
2019-03-29T05:55:32.073Z,78.53
2019-03-29T05:58:00.526Z,93.47
2019-03-29T06:00:31.818Z,82.53
2019-03-29T06:03:05.803Z,75.83
2019-03-29T06:05:36.720Z,91.40
2019-03-29T06:08:07.861Z,81.33
2019-03-29T06:10:48.701Z,97.27
2019-03-29T06:13:11.900Z,95.17
2019-03-29T06:15:43.683Z,89.30
2019-03-29T06:18:37.126Z,86.83
2019-03-29T06:21:22.500Z,91.03
2019-03-29T06:23:54.989Z,81.90
2019-03-29T06:26:26.516Z,85.67
2019-03-29T06:28:57.577Z,77.47
2019-03-29T06:31:28.496Z,89.80
2019-03-29T06:33:59.552Z,96.10
2019-03-29T06:36:32.325Z,94.23
2019-03-29T06:39:04.998Z,91.40
2019-03-29T06:41:36.137Z,88.60
2019-03-29T06:44:06.871Z,90.30
2019-03-29T06:46:37.509Z,92.80
2019-03-29T06:49:10.289Z,96.17
2019-03-29T06:51:41.521Z,95.97
2019-03-29T06:54:12.072Z,80.57
2019-03-29T06:56:43.096Z,79.30
2019-03-29T06:59:14.546Z,84.00
2019-03-29T07:01:46.593Z,78.70
2019-03-29T07:04:21.855Z,80.93
2019-03-29T07:06:52.897Z,63.83
2019-03-29T07:09:23.932Z,68.33
2019-03-29T07:11:55.782Z,78.20
2019-03-29T07:14:26.525Z,71.43
2019-03-29T07:17:02.883Z,70.67
2019-03-29T07:19:33.617Z,66.30
2019-03-29T07:22:05.483Z,61.67
2019-03-29T07:24:36.843Z,63.00
2019-03-29T07:27:17.913Z,69.03
2019-03-29T07:29:49.793Z,69.40
2019-03-29T07:32:23.175Z,57.60
2019-03-29T07:37:50.540Z,60.47
2019-03-29T07:40:21.374Z,85.10
2019-03-29T07:43:05.734Z,67.23
2019-03-29T07:45:43.933Z,62.80
2019-03-29T09:59:26.891Z,13.43
2019-03-29T10:01:57.535Z,13.00
2019-03-29T10:04:27.954Z,16.17
2019-03-29T10:07:01.974Z,15.03
2019-03-29T10:09:32.895Z,13.93
2019-03-29T10:12:03.825Z,15.03
2019-03-29T10:14:34.106Z,14.57
2019-03-29T10:17:04.274Z,15.03
2019-03-29T10:19:34.695Z,14.33
2019-03-29T10:22:06.154Z,14.30
2019-03-29T10:24:37.293Z,14.40
2019-03-29T10:27:08.339Z,15.67
2019-03-29T10:29:39.064Z,18.30
2019-03-29T10:32:13.794Z,17.47
2019-03-29T10:34:44.215Z,14.40
2019-03-29T10:37:14.954Z,15.23
2019-03-29T10:39:45.161Z,16.37
2019-03-29T10:42:16.137Z,17.70
2019-03-29T10:44:54.114Z,17.00
2019-03-29T10:47:42.355Z,15.60
2019-03-29T10:49:58.549Z,15.27
2019-03-29T10:52:29.490Z,15.37
2019-03-29T10:55:00.523Z,18.30
2019-03-29T10:57:30.856Z,13.93
2019-03-29T11:00:01.275Z,12.60
2019-03-29T11:02:32.525Z,14.40
2019-03-29T11:05:04.396Z,13.67
2019-03-29T11:07:35.524Z,14.10
2019-03-29T11:10:07.491Z,14.57
2019-03-29T11:12:38.744Z,16.47
2019-03-29T11:15:09.074Z,14.20
2019-03-29T11:17:40.516Z,13.90
2019-03-29T11:20:12.075Z,15.10
2019-03-29T11:22:43.105Z,13.93
2019-03-29T11:25:14.147Z,14.53
2019-03-29T11:27:44.894Z,14.00
2019-03-29T11:30:15.404Z,12.63
2019-03-29T11:32:46.034Z,13.40
2019-03-29T11:35:16.776Z,12.47
2019-03-29T11:37:47.602Z,12.73
2019-03-29T11:40:47.724Z,11.50
2019-03-29T11:43:26.467Z,11.50
2019-03-29T11:45:51.855Z,11.90
2019-03-29T11:48:22.814Z,12.50
2019-03-29T11:50:53.215Z,11.27
2019-03-29T11:53:23.855Z,10.40
2019-03-29T11:55:54.584Z,11.10
2019-03-29T11:58:25.415Z,14.67
2019-03-29T12:00:56.664Z,10.53
2019-03-29T12:03:50.644Z,10.83
2019-03-29T12:06:23.835Z,13.80
2019-03-29T12:08:57.115Z,8.23
2019-03-29T12:11:27.244Z,8.77
2019-03-29T12:13:57.774Z,8.40
2019-03-29T12:16:28.314Z,9.37
2019-03-29T12:18:59.134Z,8.90
2019-03-29T12:21:30.484Z,9.17
2019-03-29T12:24:00.915Z,9.23
2019-03-29T12:26:31.334Z,7.60
2019-03-29T12:29:01.771Z,8.80
2019-03-29T12:31:32.717Z,11.13
2019-03-29T12:34:03.335Z,7.17
2019-03-29T12:36:37.773Z,9.17
2019-03-29T12:39:12.594Z,10.53
2019-03-29T12:41:43.524Z,9.83
2019-03-29T12:44:13.844Z,10.63
2019-03-29T12:46:44.394Z,10.20
2019-03-29T12:49:15.526Z,11.33
2019-03-29T12:51:47.112Z,11.90
2019-03-29T12:54:18.416Z,12.00
2019-03-29T12:56:49.185Z,11.77
2019-03-29T12:59:20.035Z,8.93
2019-03-29T13:01:51.024Z,9.33
2019-03-29T13:04:21.355Z,12.10
2019-03-29T13:06:51.977Z,9.60
2019-03-29T13:09:23.744Z,8.67
2019-03-29T13:11:53.955Z,11.57
2019-03-29T13:14:26.143Z,22.87
2019-03-29T13:17:02.889Z,19.10
2019-03-29T13:19:33.952Z,13.77
2019-03-29T13:22:07.234Z,12.63
2019-03-29T13:24:38.883Z,11.73
2019-03-29T13:27:09.830Z,7.87
2019-03-29T13:29:56.028Z,11.00
2019-03-29T13:35:33.226Z,9.47
2019-03-29T13:38:04.174Z,9.47
2019-03-29T13:40:35.823Z,8.50
2019-03-29T13:43:19.152Z,8.47
2019-03-29T13:45:50.915Z,9.27
2019-03-29T13:48:21.744Z,11.20
2019-03-29T13:50:52.884Z,13.83
2019-03-29T13:53:23.934Z,11.23
2019-03-29T13:55:54.473Z,9.33
2019-03-29T13:58:24.774Z,11.30
2019-03-29T14:04:36.494Z,8.37
2019-03-29T14:07:07.854Z,9.87
2019-03-29T14:09:39.898Z,14.17
2019-03-29T14:12:15.243Z,7.57
2019-03-29T14:14:47.926Z,8.83
2019-03-29T14:17:27.174Z,16.07
2019-03-29T14:20:04.564Z,9.13
2019-03-29T14:23:12.246Z,9.80
2019-03-29T14:25:52.394Z,12.47
2019-03-29T14:28:25.074Z,9.60
2019-03-29T14:30:56.524Z,10.53
2019-03-29T14:33:27.275Z,11.53
2019-03-29T14:35:58.819Z,17.03
2019-03-29T14:38:32.434Z,13.30
2019-03-29T14:41:03.455Z,14.70
2019-03-29T14:43:35.433Z,15.03
2019-03-29T14:46:11.102Z,13.67
2019-03-29T14:48:44.994Z,15.80
2019-03-29T14:51:22.971Z,18.33
2019-03-29T14:53:54.742Z,15.10
2019-03-29T14:56:26.174Z,15.77
2019-03-29T14:58:58.552Z,13.47
2019-03-29T15:01:30.532Z,14.87
2019-03-29T15:04:01.761Z,12.87
2019-03-29T15:06:35.567Z,13.07
2019-03-29T15:09:08.141Z,12.43
2019-03-29T15:11:39.487Z,12.47
2019-03-29T15:14:10.742Z,13.77
2019-03-29T15:16:41.376Z,11.13
2019-03-29T15:19:12.836Z,12.67
2019-03-29T15:21:44.587Z,11.87
2019-03-29T15:24:15.830Z,11.87
2019-03-29T15:26:47.687Z,15.27
2019-03-29T15:29:18.955Z,13.10
2019-03-29T15:31:50.471Z,13.17
2019-03-29T15:34:21.156Z,12.90
2019-03-29T15:36:52.564Z,10.73
2019-03-29T15:39:24.542Z,12.60
2019-03-29T15:41:55.781Z,12.87
2019-03-29T15:44:26.920Z,11.00
2019-03-29T15:46:58.686Z,11.77
2019-03-29T15:49:29.830Z,13.07
2019-03-29T15:52:02.000Z,11.80
2019-03-29T15:54:33.953Z,15.73
2019-03-29T15:57:07.360Z,12.50
2019-03-29T15:59:38.924Z,13.43
2019-03-29T16:02:10.233Z,14.07
2019-03-29T16:04:40.870Z,16.10
2019-03-29T16:07:11.737Z,15.97
2019-03-29T16:09:42.979Z,13.07
2019-03-29T16:12:14.106Z,21.50
2019-03-29T16:14:47.174Z,11.33
2019-03-29T16:17:18.532Z,14.50
2019-03-29T16:19:49.792Z,13.20
2019-03-29T16:22:24.510Z,13.67
2019-03-29T16:24:56.280Z,12.73
2019-03-29T16:27:27.822Z,10.47
2019-03-29T16:30:00.360Z,10.37
2019-03-29T16:32:31.955Z,10.30
2019-03-29T16:35:03.493Z,15.70
2019-03-29T16:37:36.172Z,14.50
2019-03-29T16:40:07.618Z,14.70
2019-03-29T16:42:41.027Z,14.67
2019-03-29T16:45:12.703Z,14.00
2019-03-29T16:47:43.518Z,14.27
2019-03-29T16:50:14.972Z,12.97
2019-03-29T16:52:46.748Z,14.67
2019-03-29T16:55:19.159Z,12.37
2019-03-29T16:57:50.861Z,15.57
2019-03-29T17:00:21.920Z,17.07
2019-03-29T17:02:53.544Z,14.27
2019-03-29T17:05:30.341Z,13.47
2019-03-29T17:08:05.762Z,14.10
2019-03-29T17:10:36.691Z,13.90
2019-03-29T17:13:08.902Z,17.37
2019-03-29T17:15:41.342Z,13.70
2019-03-29T17:18:13.021Z,14.27
2019-03-29T17:20:48.234Z,14.23
2019-03-29T17:47:41.667Z,32.03
2019-03-29T18:01:06.810Z,36.40
2019-03-29T18:57:05.160Z,185.93
2019-03-29T18:59:42.737Z,183.55
2019-03-29T19:02:24.729Z,184.63
2019-03-29T19:05:02.224Z,202.43
2019-03-29T19:07:37.050Z,238.90
2019-03-29T19:10:15.372Z,238.67
2019-03-29T19:12:52.650Z,228.00
2019-03-29T19:15:26.175Z,267.40
2019-03-29T19:18:16.585Z,263.37
2019-03-29T19:21:04.790Z,268.03
2019-03-29T19:23:49.040Z,238.53
2019-03-29T19:26:25.810Z,268.70
2019-03-29T19:29:13.664Z,228.47
2019-03-29T19:31:48.161Z,225.33
2019-03-29T19:34:24.144Z,244.07
2019-03-29T19:37:01.733Z,259.03
2019-03-29T19:39:50.891Z,221.37
2019-03-29T19:42:31.663Z,242.90
2019-03-29T19:45:23.187Z,270.93
2019-03-29T19:48:22.275Z,264.07
2019-03-29T19:51:06.128Z,242.97
2019-03-29T19:54:21.023Z,219.03
2019-03-29T20:00:39.192Z,179.77
2019-03-29T20:03:24.048Z,170.40
2019-03-29T20:06:00.159Z,156.37
2019-03-29T20:08:37.150Z,194.83
2019-03-29T20:11:12.078Z,187.40
2019-03-29T20:13:48.751Z,194.07
2019-03-29T20:16:27.681Z,225.37
2019-03-29T20:19:04.901Z,143.07
2019-03-29T20:21:39.007Z,148.30
2019-03-29T20:24:32.880Z,156.20
2019-03-29T20:27:18.645Z,134.93
2019-03-29T20:29:56.135Z,170.03
2019-03-29T20:32:32.806Z,217.37
2019-03-29T20:35:10.186Z,198.17
2019-03-29T20:38:06.852Z,172.60
2019-03-29T20:40:42.603Z,149.47
2019-03-29T20:43:17.543Z,173.23
2019-03-29T20:45:51.229Z,191.43
2019-03-29T20:48:33.567Z,188.40
2019-03-29T20:51:07.471Z,185.93
2019-03-29T20:53:43.747Z,207.17
2019-03-29T20:56:20.300Z,210.10
2019-03-29T20:58:52.535Z,205.47
2019-03-29T21:01:26.581Z,213.07
2019-03-29T21:03:58.932Z,217.53
2019-03-29T21:06:35.612Z,214.50
2019-03-29T21:09:10.179Z,217.27
2019-03-29T21:12:02.491Z,245.37
2019-03-29T21:14:39.728Z,265.00
2019-03-29T21:17:13.688Z,247.40
2019-03-29T21:19:46.196Z,260.60
2019-03-29T21:22:27.805Z,245.30
2019-03-29T21:25:22.497Z,253.83
2019-03-29T21:28:05.522Z,243.80
2019-03-29T21:30:39.135Z,249.33
2019-03-29T21:33:13.036Z,264.90
2019-03-29T21:35:49.292Z,241.47
2019-03-29T21:38:31.939Z,276.07
2019-03-29T21:41:11.067Z,279.10
2019-03-29T21:43:50.383Z,268.07
2019-03-29T21:46:50.083Z,262.67
2019-03-29T21:49:28.602Z,282.80
2019-03-29T21:52:07.343Z,270.53
2019-03-29T21:54:37.134Z,280.40
2019-03-29T21:57:21.727Z,265.43
2019-03-29T22:00:00.541Z,268.47
2019-03-29T22:02:33.515Z,265.03
2019-03-29T22:05:06.008Z,263.97
2019-03-29T22:07:38.175Z,243.80
2019-03-29T22:10:13.086Z,268.43
2019-03-29T22:12:44.948Z,292.33
2019-03-29T22:15:16.397Z,288.67
2019-03-29T22:17:50.492Z,302.07
2019-03-29T22:20:26.803Z,302.80
2019-03-29T22:22:57.900Z,296.47
2019-03-29T22:25:32.940Z,281.07
2019-03-29T22:28:04.592Z,262.57
2019-03-29T22:30:35.643Z,261.33
2019-03-29T22:33:09.565Z,245.10
2019-03-29T22:35:40.907Z,246.70
2019-03-29T22:38:12.862Z,243.90
2019-03-29T22:40:44.819Z,248.77
2019-03-29T22:43:34.493Z,228.47
2019-03-29T22:46:05.150Z,201.03
2019-03-29T22:48:35.866Z,231.13
2019-03-29T22:51:06.601Z,204.13
2019-03-29T22:53:37.422Z,232.33
2019-03-29T22:56:08.060Z,233.97
2019-03-29T22:58:42.587Z,225.90
2019-03-29T23:01:13.431Z,226.73
2019-03-29T23:03:44.772Z,245.93
2019-03-29T23:06:15.498Z,228.37
2019-03-29T23:08:46.152Z,207.03
2019-03-29T23:11:17.178Z,216.83
2019-03-29T23:13:48.532Z,225.20
2019-03-29T23:16:20.382Z,212.37
2019-03-29T23:19:05.522Z,196.27
2019-03-29T23:21:24.319Z,200.00
2019-03-29T23:23:55.959Z,192.73
2019-03-29T23:26:28.155Z,192.43
2019-03-29T23:29:00.085Z,179.10
2019-03-29T23:31:32.165Z,151.30
2019-03-29T23:34:06.172Z,144.17
2019-03-29T23:36:44.691Z,133.80
2019-03-29T23:39:18.092Z,171.93
2019-03-29T23:41:51.073Z,156.10
2019-03-29T23:44:22.931Z,154.60
2019-03-29T23:46:54.272Z,161.20
2019-03-29T23:49:25.508Z,159.70
2019-03-29T23:51:56.540Z,144.17
2019-03-29T23:54:28.501Z,177.10
2019-03-29T23:56:59.953Z,179.70
2019-03-29T23:59:31.011Z,169.83
